Time;durP1;ratioP1;P1;durP2;ratioP2;P2;SDS_P1;SDS_P2;PMS_P1;PMS_P2;Temp;Humidity;BMP_temperature;BMP_pressure;BME280_temperature;BME280_humidity;BME280_pressure;Samples;Min_cycle;Max_cycle;Signal;HPM_P1;HPM_P2
2024/04/17 00:00:15;;;;;;;10.45;6.13;;;;;;;;;;5416049;26;19991;-61
2024/04/17 00:02:41;;;;;;;9.68;5.72;;;;;;;;;;5415890;26;19995;-63
2024/04/17 00:05:07;;;;;;;9.90;5.90;;;;;;;;;;5415773;26;20027;-62
2024/04/17 00:07:33;;;;;;;9.50;5.60;;;;;;;;;;5415914;26;20014;-64
2024/04/17 00:09:59;;;;;;;9.80;5.80;;;;;;;;;;5415979;26;20002;-63
2024/04/17 00:12:25;;;;;;;9.90;5.80;;;;;;;;;;5415737;26;20005;-64
2024/04/17 00:14:51;;;;;;;9.90;5.80;;;;;;;;;;5415731;26;20457;-63
2024/04/17 00:17:17;;;;;;;9.57;5.68;;;;;;;;;;5415774;26;20006;-64
2024/04/17 00:19:43;;;;;;;9.77;5.80;;;;;;;;;;5415000;26;20003;-64
2024/04/17 00:22:09;;;;;;;10.00;5.88;;;;;;;;;;5415441;26;20430;-64
2024/04/17 00:24:35;;;;;;;10.40;6.10;;;;;;;;;;5415475;26;19999;-61
2024/04/17 00:27:01;;;;;;;10.40;6.10;;;;;;;;;;5415517;26;19992;-61
2024/04/17 00:29:27;;;;;;;12.68;8.23;;;;;;;;;;5415779;26;20430;-64
2024/04/17 00:31:53;;;;;;;10.20;6.00;;;;;;;;;;5413432;26;20072;-64
2024/04/17 00:34:19;;;;;;;9.90;5.88;;;;;;;;;;5413216;26;20418;-62
2024/04/17 00:36:45;;;;;;;10.50;6.30;;;;;;;;;;5415345;26;20003;-64
2024/04/17 00:39:11;;;;;;;10.00;5.90;;;;;;;;;;5415377;26;19991;-64
2024/04/17 00:41:37;;;;;;;10.07;5.97;;;;;;;;;;5415271;26;20377;-63
2024/04/17 00:44:03;;;;;;;9.68;5.75;;;;;;;;;;5414776;26;20003;-62
2024/04/17 00:46:30;;;;;;;10.20;6.00;;;;;;;;;;5415161;26;20327;-64
2024/04/17 00:48:56;;;;;;;9.75;5.80;;;;;;;;;;5414978;26;20499;-63
2024/04/17 00:51:22;;;;;;;9.90;5.82;;;;;;;;;;5414545;26;19991;-60
2024/04/17 00:53:48;;;;;;;10.00;5.90;;;;;;;;;;5414754;26;20006;-61
2024/04/17 00:56:14;;;;;;;10.30;6.10;;;;;;;;;;5413004;26;20441;-62
2024/04/17 00:58:41;;;;;;;9.80;5.80;;;;;;;;;;5414975;26;20068;-63
2024/04/17 01:01:06;;;;;;;10.27;6.10;;;;;;;;;;5414715;26;20045;-62
2024/04/17 01:03:33;;;;;;;9.95;5.88;;;;;;;;;;5415030;26;20455;-63
2024/04/17 01:05:59;;;;;;;10.27;6.07;;;;;;;;;;5414751;26;20000;-63
2024/04/17 01:08:25;;;;;;;9.98;5.88;;;;;;;;;;5415112;26;19996;-64
2024/04/17 01:11:01;;;;;;;10.10;6.00;;;;;;;;;;5414728;26;20481;-64
2024/04/17 01:13:27;;;;;;;10.30;6.10;;;;;;;;;;5414980;26;20459;-64
2024/04/17 01:15:53;;;;;;;9.90;5.90;;;;;;;;;;5414727;26;19999;-60
2024/04/17 01:18:20;;;;;;;9.75;5.78;;;;;;;;;;5414520;26;20018;-63
2024/04/17 01:20:45;;;;;;;9.90;5.80;;;;;;;;;;5414758;26;19996;-64
2024/04/17 01:23:11;;;;;;;9.85;5.80;;;;;;;;;;5414738;26;19996;-64
2024/04/17 01:25:37;;;;;;;10.00;5.93;;;;;;;;;;5412664;26;20327;-64
2024/04/17 01:28:03;;;;;;;9.80;5.80;;;;;;;;;;5414685;26;19996;-62
2024/04/17 01:30:29;;;;;;;10.27;6.10;;;;;;;;;;5412821;26;20334;-64
2024/04/17 01:32:55;;;;;;;10.00;5.90;;;;;;;;;;5412876;26;20002;-64
2024/04/17 01:35:21;;;;;;;9.85;5.80;;;;;;;;;;5414680;26;20455;-62
2024/04/17 01:37:47;;;;;;;10.70;6.50;;;;;;;;;;5414912;26;20005;-63
2024/04/17 01:40:13;;;;;;;10.18;6.00;;;;;;;;;;5414619;26;20477;-63
2024/04/17 01:42:39;;;;;;;10.10;5.93;;;;;;;;;;5412464;26;20002;-61
2024/04/17 01:45:06;;;;;;;10.07;5.93;;;;;;;;;;5414332;26;20551;-61
2024/04/17 01:47:31;;;;;;;9.48;5.60;;;;;;;;;;5414275;26;20502;-62
2024/04/17 01:49:58;;;;;;;10.25;6.03;;;;;;;;;;5412882;26;19997;-62
2024/04/17 01:52:24;;;;;;;9.95;5.88;;;;;;;;;;5414690;26;20533;-64
2024/04/17 01:54:49;;;;;;;10.30;6.10;;;;;;;;;;5414625;26;20003;-63
2024/04/17 01:57:15;;;;;;;10.38;6.10;;;;;;;;;;5412307;26;19987;-63
2024/04/17 01:59:41;;;;;;;10.02;5.95;;;;;;;;;;5414543;26;19994;-62
2024/04/17 02:02:08;;;;;;;10.05;5.95;;;;;;;;;;5412847;26;20006;-62
2024/04/17 02:04:34;;;;;;;10.30;6.10;;;;;;;;;;5414363;26;20002;-62
2024/04/17 02:06:59;;;;;;;9.48;5.65;;;;;;;;;;5414256;26;20489;-60
2024/04/17 02:09:25;;;;;;;9.80;5.80;;;;;;;;;;5414178;26;20597;-60
2024/04/17 02:11:51;;;;;;;9.70;5.70;;;;;;;;;;5413823;26;20006;-63
2024/04/17 02:14:17;;;;;;;9.55;5.68;;;;;;;;;;5413837;26;19995;-63
2024/04/17 02:16:43;;;;;;;9.57;5.65;;;;;;;;;;5414097;26;20342;-62
2024/04/17 02:19:09;;;;;;;10.00;5.90;;;;;;;;;;5413673;26;19998;-63
2024/04/17 02:21:35;;;;;;;9.82;5.80;;;;;;;;;;5413638;26;19995;-62
2024/04/17 02:24:01;;;;;;;9.57;5.70;;;;;;;;;;5413607;26;19992;-62
2024/04/17 02:26:27;;;;;;;9.43;5.60;;;;;;;;;;5413547;26;19992;-62
2024/04/17 02:28:53;;;;;;;9.77;5.80;;;;;;;;;;5413871;26;20007;-62
2024/04/17 02:31:19;;;;;;;9.55;5.65;;;;;;;;;;5413912;26;20442;-64
2024/04/17 02:33:45;;;;;;;9.32;5.50;;;;;;;;;;5413665;26;20000;-63
2024/04/17 02:36:12;;;;;;;10.20;6.00;;;;;;;;;;5413395;26;20060;-61
2024/04/17 02:38:38;;;;;;;9.52;5.63;;;;;;;;;;5413575;26;19992;-60
2024/04/17 02:41:04;;;;;;;10.00;5.93;;;;;;;;;;5414704;26;20560;-61
2024/04/17 02:43:30;;;;;;;10.05;5.90;;;;;;;;;;5418980;26;20646;-62
2024/04/17 02:45:56;;;;;;;9.88;5.80;;;;;;;;;;5419234;26;20007;-63
2024/04/17 02:48:22;;;;;;;10.20;6.00;;;;;;;;;;5420690;26;20434;-61
2024/04/17 02:50:48;;;;;;;10.18;6.00;;;;;;;;;;5421139;26;20003;-63
2024/04/17 02:53:14;;;;;;;10.13;6.00;;;;;;;;;;5420693;26;20003;-62
2024/04/17 02:55:40;;;;;;;10.13;5.95;;;;;;;;;;5420783;26;19991;-63
2024/04/17 02:58:06;;;;;;;10.00;5.93;;;;;;;;;;5420883;26;20005;-61
2024/04/17 03:00:32;;;;;;;10.00;5.90;;;;;;;;;;5421054;26;19991;-63
2024/04/17 03:02:58;;;;;;;12.75;9.02;;;;;;;;;;5420717;26;19995;-62
2024/04/17 03:05:26;;;;;;;10.60;6.20;;;;;;;;;;5420634;26;19991;-62
2024/04/17 03:07:52;;;;;;;10.48;6.20;;;;;;;;;;5420781;26;20322;-62
2024/04/17 03:10:18;;;;;;;10.40;6.10;;;;;;;;;;5420945;26;20003;-61
2024/04/17 03:12:44;;;;;;;10.63;6.22;;;;;;;;;;5421018;26;20416;-61
2024/04/17 03:15:12;;;;;;;10.60;6.30;;;;;;;;;;5420624;26;20068;-63
2024/04/17 03:17:38;;;;;;;10.88;6.40;;;;;;;;;;5420404;26;20014;-62
2024/04/17 03:20:04;;;;;;;10.73;6.30;;;;;;;;;;5418566;26;19991;-63
2024/04/17 03:22:30;;;;;;;11.00;6.45;;;;;;;;;;5419961;26;20336;-61
2024/04/17 03:24:56;;;;;;;10.70;6.30;;;;;;;;;;5420627;26;19995;-63
2024/04/17 03:27:22;;;;;;;11.18;6.50;;;;;;;;;;5420739;26;20004;-64
2024/04/17 03:29:48;;;;;;;10.82;6.32;;;;;;;;;;5420360;26;19991;-63
2024/04/17 03:32:14;;;;;;;10.80;6.40;;;;;;;;;;5419705;26;20003;-61
2024/04/17 03:34:40;;;;;;;11.40;7.25;;;;;;;;;;5419659;26;20055;-62
2024/04/17 03:37:06;;;;;;;11.00;6.50;;;;;;;;;;5419385;26;19996;-64
2024/04/17 03:39:32;;;;;;;11.10;6.50;;;;;;;;;;5420734;26;20063;-63
2024/04/17 03:41:58;;;;;;;10.85;6.30;;;;;;;;;;5418009;26;20019;-61
2024/04/17 03:44:24;;;;;;;10.80;6.40;;;;;;;;;;5417864;26;20009;-60
2024/04/17 03:46:50;;;;;;;10.18;6.03;;;;;;;;;;5420151;26;20006;-61
2024/04/17 03:49:16;;;;;;;10.43;6.15;;;;;;;;;;5419937;26;20420;-63
2024/04/17 03:51:42;;;;;;;10.68;6.28;;;;;;;;;;5419782;26;20006;-64
2024/04/17 03:54:08;;;;;;;10.95;6.40;;;;;;;;;;5415015;26;19995;-63
2024/04/17 03:56:34;;;;;;;10.60;6.28;;;;;;;;;;5415849;26;20014;-62
2024/04/17 03:59:00;;;;;;;10.90;6.40;;;;;;;;;;5414081;26;19991;-58
2024/04/17 04:01:26;;;;;;;10.70;6.30;;;;;;;;;;5415621;26;20023;-63
2024/04/17 04:03:52;;;;;;;10.57;6.25;;;;;;;;;;5415268;26;20025;-61
2024/04/17 04:06:18;;;;;;;10.45;6.18;;;;;;;;;;5403556;26;20007;-62
2024/04/17 04:08:44;;;;;;;10.63;6.25;;;;;;;;;;5405628;26;19999;-61
2024/04/17 04:11:10;;;;;;;10.38;6.15;;;;;;;;;;5379689;26;19988;-57
2024/04/17 04:13:36;;;;;;;10.20;6.00;;;;;;;;;;5390195;26;19999;-63
2024/04/17 04:16:02;;;;;;;11.07;6.60;;;;;;;;;;5415128;26;20013;-62
2024/04/17 04:18:28;;;;;;;10.80;6.30;;;;;;;;;;5414904;26;20061;-61
2024/04/17 04:20:54;;;;;;;10.43;6.18;;;;;;;;;;5415841;26;19996;-64
2024/04/17 04:23:20;;;;;;;11.07;6.80;;;;;;;;;;5386112;26;20010;-63
2024/04/17 04:25:46;;;;;;;12.20;10.20;;;;;;;;;;5380548;26;20405;-64
2024/04/17 04:28:11;;;;;;;10.60;6.30;;;;;;;;;;5379769;26;20011;-65
2024/04/17 04:30:40;;;;;;;11.02;6.45;;;;;;;;;;5379031;26;19992;-65
2024/04/17 04:33:06;;;;;;;10.82;6.40;;;;;;;;;;5379296;26;19992;-63
2024/04/17 04:35:32;;;;;;;10.90;6.40;;;;;;;;;;5379463;26;20482;-63
2024/04/17 04:37:58;;;;;;;10.68;6.30;;;;;;;;;;5379660;26;20028;-64
2024/04/17 04:40:24;;;;;;;10.48;6.18;;;;;;;;;;5379322;26;19996;-63
2024/04/17 04:42:50;;;;;;;11.30;6.63;;;;;;;;;;5348431;26;20000;-61
2024/04/17 04:45:16;;;;;;;11.00;6.43;;;;;;;;;;5379454;26;19992;-61
2024/04/17 04:47:42;;;;;;;11.70;6.82;;;;;;;;;;5347495;26;20007;-60
2024/04/17 04:50:08;;;;;;;10.77;6.35;;;;;;;;;;5378995;26;20105;-65
2024/04/17 04:52:34;;;;;;;10.82;6.40;;;;;;;;;;5378817;26;20380;-63
2024/04/17 04:55:00;;;;;;;10.70;6.30;;;;;;;;;;5348012;26;20019;-62
2024/04/17 04:57:26;;;;;;;11.25;6.57;;;;;;;;;;5379303;26;19992;-63
2024/04/17 04:59:52;;;;;;;10.70;6.30;;;;;;;;;;5347228;26;20028;-63
2024/04/17 05:02:18;;;;;;;11.30;6.70;;;;;;;;;;5378456;26;20228;-62
2024/04/17 05:04:44;;;;;;;10.65;6.25;;;;;;;;;;5378166;26;20000;-63
2024/04/17 05:07:10;;;;;;;11.20;6.55;;;;;;;;;;5378336;26;19996;-64
2024/04/17 05:09:36;;;;;;;10.95;6.43;;;;;;;;;;5377930;26;20012;-63
2024/04/17 05:12:02;;;;;;;10.70;6.30;;;;;;;;;;5347462;26;20497;-63
2024/04/17 05:14:28;;;;;;;11.10;6.50;;;;;;;;;;5378374;26;20000;-64
2024/04/17 05:16:54;;;;;;;10.75;6.30;;;;;;;;;;5376964;26;20000;-64
2024/04/17 05:19:20;;;;;;;10.65;6.25;;;;;;;;;;5377872;26;19988;-61
2024/04/17 05:21:46;;;;;;;10.55;6.28;;;;;;;;;;5377375;26;20525;-63
2024/04/17 05:24:12;;;;;;;10.75;6.32;;;;;;;;;;5378318;26;20136;-63
2024/04/17 05:26:38;;;;;;;10.30;6.10;;;;;;;;;;5378446;26;19997;-63
2024/04/17 05:29:04;;;;;;;9.77;5.78;;;;;;;;;;5378743;26;20454;-63
2024/04/17 05:31:32;;;;;;;11.85;7.03;;;;;;;;;;5457990;21;20014;-63
2024/04/17 05:33:58;;;;;;;10.57;6.27;;;;;;;;;;5447039;26;19991;-61
2024/04/17 05:36:24;;;;;;;10.60;6.20;;;;;;;;;;5446464;26;20013;-61
2024/04/17 05:38:50;;;;;;;10.30;6.07;;;;;;;;;;5446876;26;20007;-63
2024/04/17 05:41:16;;;;;;;10.00;5.90;;;;;;;;;;5446827;26;20013;-63
2024/04/17 05:43:42;;;;;;;9.40;5.55;;;;;;;;;;5447003;26;19999;-62
2024/04/17 05:46:07;;;;;;;9.98;6.13;;;;;;;;;;5447346;26;20010;-61
2024/04/17 05:48:33;;;;;;;10.30;6.00;;;;;;;;;;5447009;26;20090;-61
2024/04/17 05:50:59;;;;;;;10.98;6.72;;;;;;;;;;5446459;26;20017;-61
2024/04/17 05:53:26;;;;;;;10.25;6.00;;;;;;;;;;5444164;26;20023;-58
2024/04/17 05:55:52;;;;;;;11.13;6.50;;;;;;;;;;5446003;26;20096;-62
2024/04/17 05:58:18;;;;;;;10.80;6.40;;;;;;;;;;5446573;26;20003;-60
2024/04/17 06:00:44;;;;;;;10.32;6.13;;;;;;;;;;5446654;26;19995;-62
2024/04/17 06:03:09;;;;;;;10.25;6.10;;;;;;;;;;5446323;26;19999;-63
2024/04/17 06:05:35;;;;;;;10.55;6.20;;;;;;;;;;5446355;26;20002;-63
2024/04/17 06:08:01;;;;;;;10.05;5.95;;;;;;;;;;5446589;26;20005;-61
2024/04/17 06:10:27;;;;;;;9.82;5.80;;;;;;;;;;5446029;26;20006;-63
2024/04/17 06:12:53;;;;;;;10.95;7.10;;;;;;;;;;5446039;26;19995;-62
2024/04/17 06:15:19;;;;;;;9.38;5.57;;;;;;;;;;5446303;26;20452;-63
2024/04/17 06:17:45;;;;;;;9.55;5.65;;;;;;;;;;5444806;26;20001;-62
2024/04/17 06:20:11;;;;;;;9.48;5.60;;;;;;;;;;5446701;26;19999;-64
2024/04/17 06:22:37;;;;;;;9.15;5.40;;;;;;;;;;5446507;26;19991;-62
2024/04/17 06:25:03;;;;;;;9.68;5.75;;;;;;;;;;5446158;26;20005;-62
2024/04/17 06:27:29;;;;;;;10.10;5.90;;;;;;;;;;5445839;26;19994;-61
2024/04/17 06:29:56;;;;;;;9.80;5.80;;;;;;;;;;5446004;26;20005;-62
2024/04/17 06:32:22;;;;;;;8.80;5.25;;;;;;;;;;5445964;26;20010;-62
2024/04/17 06:34:48;;;;;;;10.30;6.05;;;;;;;;;;5445772;26;19994;-62
2024/04/17 06:37:14;;;;;;;10.05;5.90;;;;;;;;;;5446286;26;19995;-63
2024/04/17 06:39:39;;;;;;;11.43;6.90;;;;;;;;;;5445411;26;19999;-61
2024/04/17 06:42:05;;;;;;;9.77;5.78;;;;;;;;;;5445327;26;20338;-63
2024/04/17 06:44:33;;;;;;;11.02;6.45;;;;;;;;;;5445214;26;19999;-61
2024/04/17 06:47:00;;;;;;;9.98;5.90;;;;;;;;;;5445722;26;20528;-62
2024/04/17 06:49:27;;;;;;;9.20;5.40;;;;;;;;;;5445952;26;20158;-61
2024/04/17 06:51:53;;;;;;;10.45;6.15;;;;;;;;;;5445765;26;20048;-62
2024/04/17 06:54:19;;;;;;;11.50;6.95;;;;;;;;;;5462959;26;20022;-62
2024/04/17 06:56:45;;;;;;;11.25;6.78;;;;;;;;;;5481755;26;20067;-61
2024/04/17 06:59:11;;;;;;;10.05;6.00;;;;;;;;;;5481478;26;19994;-61
2024/04/17 07:01:37;;;;;;;9.50;5.60;;;;;;;;;;5481725;26;20001;-61
2024/04/17 07:04:04;;;;;;;9.88;5.88;;;;;;;;;;5481589;26;19990;-62
2024/04/17 07:06:30;;;;;;;10.70;6.30;;;;;;;;;;5453403;26;20705;-56
2024/04/17 07:08:56;;;;;;;12.77;8.52;;;;;;;;;;5407750;26;20438;-62
2024/04/17 07:11:22;;;;;;;12.82;7.47;;;;;;;;;;5409550;26;20041;-63
2024/04/17 07:13:48;;;;;;;13.00;7.65;;;;;;;;;;5409241;26;20092;-61
2024/04/17 07:16:14;;;;;;;12.60;7.40;;;;;;;;;;5409787;26;20511;-62
2024/04/17 07:18:40;;;;;;;13.05;7.63;;;;;;;;;;5409564;26;19999;-62
2024/04/17 07:21:06;;;;;;;13.20;7.80;;;;;;;;;;5409595;26;20035;-62
2024/04/17 07:23:32;;;;;;;12.98;7.70;;;;;;;;;;5409284;26;19995;-64
2024/04/17 07:25:58;;;;;;;14.68;9.43;;;;;;;;;;5408667;26;19995;-64
2024/04/17 07:28:25;;;;;;;13.38;8.10;;;;;;;;;;5408539;26;20451;-62
2024/04/17 07:30:50;;;;;;;13.55;8.63;;;;;;;;;;5412510;26;20045;-59
2024/04/17 07:33:18;;;;;;;13.45;8.57;;;;;;;;;;5412775;26;20059;-60
2024/04/17 07:35:44;;;;;;;13.57;8.70;;;;;;;;;;5412682;26;20107;-60
2024/04/17 07:38:10;;;;;;;13.63;8.80;;;;;;;;;;5412889;26;20337;-59
2024/04/17 07:40:37;;;;;;;13.60;8.80;;;;;;;;;;5413000;26;20002;-61
2024/04/17 07:43:03;;;;;;;13.60;8.90;;;;;;;;;;5413065;26;19996;-59
2024/04/17 07:45:29;;;;;;;13.88;9.48;;;;;;;;;;5412934;26;20460;-62
2024/04/17 07:47:55;;;;;;;13.43;8.35;;;;;;;;;;5412855;26;20006;-59
2024/04/17 07:50:21;;;;;;;13.43;8.38;;;;;;;;;;5413407;26;20066;-62
2024/04/17 07:52:47;;;;;;;13.68;8.95;;;;;;;;;;5412759;26;20056;-59
2024/04/17 07:55:13;;;;;;;13.55;8.75;;;;;;;;;;5412295;26;19991;-64
2024/04/17 07:57:39;;;;;;;13.63;8.82;;;;;;;;;;5412352;26;20404;-63
2024/04/17 08:00:05;;;;;;;13.80;9.20;;;;;;;;;;5412982;26;19998;-67
2024/04/17 08:02:31;;;;;;;13.63;8.68;;;;;;;;;;5412375;26;20482;-66
2024/04/17 08:04:57;;;;;;;15.15;13.02;;;;;;;;;;5412504;26;20034;-66
2024/04/17 08:07:23;;;;;;;13.35;8.20;;;;;;;;;;5440343;26;19999;-65
2024/04/17 08:09:49;;;;;;;13.30;7.97;;;;;;;;;;5448960;26;20006;-66
2024/04/17 08:12:15;;;;;;;13.38;8.10;;;;;;;;;;5447929;26;19998;-65
2024/04/17 08:14:41;;;;;;;13.50;8.38;;;;;;;;;;5448686;26;20002;-67
2024/04/17 08:17:07;;;;;;;13.60;8.75;;;;;;;;;;5448501;26;20001;-66
2024/04/17 08:19:35;;;;;;;13.32;8.10;;;;;;;;;;5446156;26;20053;-66
2024/04/17 08:22:01;;;;;;;;;;;;;;;;;;5448388;26;19991;-65
2024/04/17 08:24:27;;;;;;;12.82;7.55;;;;;;;;;;5447718;26;19925;-65
2024/04/17 08:26:53;;;;;;;13.18;7.78;;;;;;;;;;5447569;26;19995;-66
2024/04/17 08:29:19;;;;;;;12.88;7.50;;;;;;;;;;5447552;26;20002;-63
2024/04/17 08:31:47;;;;;;;13.10;7.70;;;;;;;;;;5448005;26;19999;-65
2024/04/17 08:34:13;;;;;;;14.27;8.30;;;;;;;;;;5444852;26;20115;-65
2024/04/17 08:36:39;;;;;;;13.43;8.20;;;;;;;;;;5444080;26;20026;-64
2024/04/17 08:39:05;;;;;;;13.13;7.60;;;;;;;;;;5446308;26;20030;-66
2024/04/17 08:41:34;;;;;;;13.25;7.70;;;;;;;;;;5448138;26;20473;-66
2024/04/17 08:44:00;;;;;;;13.43;8.20;;;;;;;;;;5447403;26;20026;-67
2024/04/17 08:46:28;;;;;;;13.30;7.90;;;;;;;;;;5446425;26;20081;-67
2024/04/17 08:48:55;;;;;;;13.40;8.10;;;;;;;;;;5445346;26;19995;-66
2024/04/17 08:51:21;;;;;;;13.50;8.48;;;;;;;;;;5447353;26;19999;-62
2024/04/17 08:53:48;;;;;;;13.27;7.90;;;;;;;;;;5447528;26;20027;-66
2024/04/17 08:56:15;;;;;;;13.32;8.07;;;;;;;;;;5447280;26;20085;-68
2024/04/17 08:58:43;;;;;;;13.27;7.80;;;;;;;;;;5446871;26;20026;-67
2024/04/17 09:01:11;;;;;;;13.30;7.90;;;;;;;;;;5448228;26;20006;-65
2024/04/17 09:03:41;;;;;;;13.50;8.30;;;;;;;;;;5446888;26;20067;-66
2024/04/17 09:06:08;;;;;;;13.45;8.20;;;;;;;;;;5447289;26;19999;-66
2024/04/17 09:08:35;;;;;;;13.60;8.65;;;;;;;;;;5448296;26;19999;-67
2024/04/17 09:11:02;;;;;;;13.25;7.90;;;;;;;;;;5447107;26;20500;-66
2024/04/17 09:13:28;;;;;;;13.40;8.30;;;;;;;;;;5447222;26;19999;-62
2024/04/17 09:15:54;;;;;;;13.55;8.43;;;;;;;;;;5445224;26;20023;-67
2024/04/17 09:18:27;;;;;;;13.50;8.55;;;;;;;;;;5447432;26;20010;-66
2024/04/17 09:20:54;;;;;;;13.60;8.70;;;;;;;;;;5446580;26;19990;-65
2024/04/17 09:23:20;;;;;;;13.50;8.18;;;;;;;;;;5445057;26;20002;-64
2024/04/17 09:25:47;;;;;;;13.73;8.98;;;;;;;;;;5445376;26;19995;-66
2024/04/17 09:28:13;;;;;;;13.57;8.45;;;;;;;;;;5447028;26;19997;-65
2024/04/17 09:30:42;;;;;;;13.20;7.75;;;;;;;;;;5446777;26;19994;-63
2024/04/17 09:33:12;;;;;;;13.13;7.70;;;;;;;;;;5447249;26;19995;-67
2024/04/17 09:35:38;;;;;;;13.48;8.30;;;;;;;;;;5447062;26;20064;-66
2024/04/17 09:38:08;;;;;;;13.50;8.23;;;;;;;;;;5446816;26;20007;-66
2024/04/17 09:40:35;;;;;;;13.70;8.45;;;;;;;;;;5447711;26;20031;-66
2024/04/17 09:43:01;;;;;;;13.48;8.25;;;;;;;;;;5447897;26;20044;-66
2024/04/17 09:45:29;;;;;;;13.40;8.00;;;;;;;;;;5447113;26;19991;-66
2024/04/17 09:47:56;;;;;;;12.80;7.40;;;;;;;;;;5447494;26;20018;-66
2024/04/17 09:50:24;;;;;;;12.90;7.53;;;;;;;;;;5446617;26;20452;-66
2024/04/17 09:52:52;;;;;;;13.38;8.00;;;;;;;;;;5446222;26;19994;-66
2024/04/17 09:55:19;;;;;;;12.80;7.60;;;;;;;;;;5447033;26;20097;-67
2024/04/17 09:57:46;;;;;;;13.30;7.82;;;;;;;;;;5447197;26;20018;-66
2024/04/17 10:00:13;;;;;;;14.65;7.72;;;;;;;;;;5447090;26;19995;-67
2024/04/17 10:02:39;;;;;;;11.88;7.05;;;;;;;;;;5446830;26;19997;-64
2024/04/17 10:05:05;;;;;;;12.90;7.50;;;;;;;;;;5446225;26;20005;-66
2024/04/17 10:07:32;;;;;;;11.77;6.88;;;;;;;;;;5445966;26;19995;-66
2024/04/17 10:09:58;;;;;;;12.60;7.32;;;;;;;;;;5446825;26;20313;-65
2024/04/17 10:12:24;;;;;;;13.18;7.75;;;;;;;;;;5444337;26;20367;-64
2024/04/17 10:14:51;;;;;;;13.63;8.60;;;;;;;;;;5446095;26;19987;-65
2024/04/17 10:17:17;;;;;;;13.50;8.30;;;;;;;;;;5446101;26;20495;-67
2024/04/17 10:19:50;;;;;;;13.43;8.27;;;;;;;;;;5446509;26;20007;-65
2024/04/17 10:22:17;;;;;;;13.07;7.72;;;;;;;;;;5444119;26;20061;-66
2024/04/17 10:24:43;;;;;;;13.43;8.27;;;;;;;;;;5445731;26;19995;-67
2024/04/17 10:27:14;;;;;;;13.95;8.65;;;;;;;;;;5446029;26;19995;-66
2024/04/17 10:29:42;;;;;;;13.73;8.98;;;;;;;;;;5445408;26;19995;-65
2024/04/17 10:32:12;;;;;;;13.70;9.00;;;;;;;;;;5446257;26;19995;-65
2024/04/17 10:34:44;;;;;;;13.55;8.50;;;;;;;;;;5445642;26;19998;-66
2024/04/17 10:37:11;;;;;;;13.95;9.60;;;;;;;;;;5446433;26;19999;-63
2024/04/17 10:39:37;;;;;;;13.73;8.95;;;;;;;;;;5446675;26;19998;-65
2024/04/17 10:42:23;;;;;;;13.85;9.30;;;;;;;;;;5444245;26;20002;-66
2024/04/17 10:44:50;;;;;;;14.40;9.20;;;;;;;;;;5445877;26;20025;-64
2024/04/17 10:47:21;;;;;;;13.70;8.90;;;;;;;;;;5446121;26;20153;-65
2024/04/17 10:49:54;;;;;;;13.57;8.63;;;;;;;;;;5443976;26;20002;-64
2024/04/17 10:52:20;;;;;;;13.55;8.50;;;;;;;;;;5445459;26;20444;-64
2024/04/17 10:54:47;;;;;;;13.50;8.50;;;;;;;;;;5445766;26;20002;-64
2024/04/17 10:57:15;;;;;;;13.57;8.60;;;;;;;;;;5444829;26;20576;-64
2024/04/17 10:59:46;;;;;;;13.60;8.68;;;;;;;;;;5443654;26;19991;-63
2024/04/17 11:02:13;;;;;;;13.50;8.27;;;;;;;;;;5446599;26;20041;-64
2024/04/17 11:04:39;;;;;;;13.43;8.20;;;;;;;;;;5449167;26;19995;-65
2024/04/17 11:07:08;;;;;;;13.50;8.35;;;;;;;;;;5449424;26;20121;-64
2024/04/17 11:09:34;;;;;;;13.52;8.50;;;;;;;;;;5448854;26;20023;-63
2024/04/17 11:12:00;;;;;;;13.50;8.38;;;;;;;;;;5449667;26;19995;-64
2024/04/17 11:14:26;;;;;;;13.50;8.50;;;;;;;;;;5448578;26;20072;-61
2024/04/17 11:16:52;;;;;;;13.57;8.73;;;;;;;;;;5447383;26;20010;-65
2024/04/17 11:19:19;;;;;;;13.60;8.55;;;;;;;;;;5446172;26;20044;-65
2024/04/17 11:21:45;;;;;;;13.52;8.32;;;;;;;;;;5449508;26;19999;-60
2024/04/17 11:24:18;;;;;;;13.35;8.18;;;;;;;;;;5449290;26;20010;-58
2024/04/17 11:26:44;;;;;;;13.68;8.93;;;;;;;;;;5446277;26;20015;-60
2024/04/17 11:29:14;;;;;;;13.75;9.10;;;;;;;;;;5418552;26;19999;-58
2024/04/17 11:31:40;;;;;;;14.20;9.15;;;;;;;;;;5450079;26;20028;-54
2024/04/17 11:34:17;;;;;;;13.80;9.20;;;;;;;;;;5449022;26;19991;-54
2024/04/17 11:36:43;;;;;;;14.02;9.90;;;;;;;;;;5449334;26;20337;-57
2024/04/17 11:39:09;;;;;;;13.77;9.00;;;;;;;;;;5449639;26;20149;-58
2024/04/17 11:41:34;;;;;;;13.20;7.88;;;;;;;;;;5449573;26;20353;-56
2024/04/17 11:44:00;;;;;;;12.73;7.43;;;;;;;;;;5446745;26;19994;-60
2024/04/17 11:46:26;;;;;;;13.45;8.20;;;;;;;;;;5447689;26;19991;-57
2024/04/17 11:48:52;;;;;;;13.27;7.97;;;;;;;;;;5447356;26;20067;-58
2024/04/17 11:51:18;;;;;;;13.57;8.68;;;;;;;;;;5449573;26;19994;-56
2024/04/17 11:53:44;;;;;;;13.57;8.85;;;;;;;;;;5449190;26;20006;-58
2024/04/17 11:56:10;;;;;;;13.50;8.57;;;;;;;;;;5449834;26;20363;-57
2024/04/17 11:58:36;;;;;;;13.77;9.30;;;;;;;;;;5447817;26;20009;-59
2024/04/17 12:01:02;;;;;;;13.73;9.02;;;;;;;;;;5447506;26;20007;-62
2024/04/17 12:03:31;;;;;;;13.70;9.00;;;;;;;;;;5449427;26;20064;-59
2024/04/17 12:05:57;;;;;;;14.05;10.05;;;;;;;;;;5448601;26;20380;-54
2024/04/17 12:08:24;;;;;;;14.00;9.85;;;;;;;;;;5448698;26;20032;-55
2024/04/17 12:10:50;;;;;;;13.70;9.00;;;;;;;;;;5448572;26;20030;-59
2024/04/17 12:13:16;;;;;;;13.70;8.93;;;;;;;;;;5447877;26;20307;-60
2024/04/17 12:15:43;;;;;;;13.77;9.20;;;;;;;;;;5445634;26;20005;-58
2024/04/17 12:18:09;;;;;;;13.50;8.88;;;;;;;;;;5447288;26;20048;-57
2024/04/17 12:20:35;;;;;;;13.55;8.60;;;;;;;;;;5444097;26;20038;-58
2024/04/17 12:23:01;;;;;;;13.68;9.07;;;;;;;;;;5442752;26;19995;-60
2024/04/17 12:28:12;;;;;;;14.48;10.98;;;;;;;;;;5444811;26;20741;-56
2024/04/17 12:30:39;;;;;;;14.40;10.80;;;;;;;;;;5445028;26;19998;-59
2024/04/17 12:33:05;;;;;;;13.90;9.40;;;;;;;;;;5445008;26;20586;-58
2024/04/17 12:35:31;;;;;;;13.55;8.68;;;;;;;;;;5445588;26;19991;-56
2024/04/17 12:37:57;;;;;;;13.65;8.75;;;;;;;;;;5447942;26;20490;-54
2024/04/17 12:40:23;;;;;;;15.23;9.30;;;;;;;;;;5445992;26;20018;-60
2024/04/17 12:42:49;;;;;;;13.52;8.32;;;;;;;;;;5447458;26;19990;-58
2024/04/17 12:45:15;;;;;;;13.13;7.75;;;;;;;;;;5447598;26;19987;-58
2024/04/17 12:47:41;;;;;;;13.43;8.20;;;;;;;;;;5445581;26;20424;-56
2024/04/17 12:50:07;;;;;;;12.88;7.55;;;;;;;;;;5447886;26;20056;-57
2024/04/17 12:52:35;;;;;;;13.50;8.23;;;;;;;;;;5447942;26;20313;-57
2024/04/17 12:55:01;;;;;;;13.65;8.57;;;;;;;;;;5448008;26;20001;-58
2024/04/17 12:57:27;;;;;;;13.63;8.60;;;;;;;;;;5447776;26;19995;-56
2024/04/17 12:59:53;;;;;;;13.77;9.25;;;;;;;;;;5448035;26;20006;-54
2024/04/17 13:02:19;;;;;;;13.80;9.00;;;;;;;;;;5447647;26;20085;-58
2024/04/17 13:04:45;;;;;;;13.70;8.95;;;;;;;;;;5447087;26;20355;-60
2024/04/17 13:07:11;;;;;;;13.55;8.38;;;;;;;;;;5447764;26;20018;-55
2024/04/17 13:09:37;;;;;;;13.73;9.07;;;;;;;;;;5447862;26;20018;-54
2024/04/17 13:12:03;;;;;;;13.82;9.57;;;;;;;;;;5447528;26;20031;-58
2024/04/17 13:14:29;;;;;;;13.75;9.10;;;;;;;;;;5447901;26;20336;-60
2024/04/17 13:16:55;;;;;;;13.95;9.55;;;;;;;;;;5447170;26;20005;-59
2024/04/17 13:19:21;;;;;;;13.90;9.60;;;;;;;;;;5447416;26;20022;-56
2024/04/17 13:21:47;;;;;;;14.07;10.10;;;;;;;;;;5447806;26;20490;-57
2024/04/17 13:24:13;;;;;;;13.95;9.93;;;;;;;;;;5447660;26;20009;-53
2024/04/17 13:26:39;;;;;;;14.10;10.20;;;;;;;;;;5443365;26;19999;-52
2024/04/17 13:29:07;;;;;;;14.10;10.00;;;;;;;;;;5447794;26;19990;-58
2024/04/17 13:31:33;;;;;;;13.85;9.30;;;;;;;;;;5447075;26;20056;-58
2024/04/17 13:33:59;;;;;;;13.95;9.77;;;;;;;;;;5445907;26;20343;-58
2024/04/17 13:36:25;;;;;;;13.75;9.32;;;;;;;;;;5474100;26;19994;-60
2024/04/17 13:38:53;;;;;;;13.88;9.55;;;;;;;;;;5447142;26;20071;-58
2024/04/17 13:41:19;;;;;;;13.90;9.50;;;;;;;;;;5447099;26;20420;-57
2024/04/17 13:43:47;;;;;;;14.20;10.30;;;;;;;;;;5447091;26;19995;-59
2024/04/17 13:46:16;;;;;;;14.23;10.48;;;;;;;;;;5447568;26;19995;-58
2024/04/17 13:48:45;;;;;;;13.95;9.85;;;;;;;;;;5446544;26;20005;-57
2024/04/17 13:51:12;;;;;;;14.18;10.30;;;;;;;;;;5447036;26;20010;-57
2024/04/17 13:53:39;;;;;;;14.18;10.40;;;;;;;;;;5446872;26;20506;-58
2024/04/17 13:56:05;;;;;;;14.10;10.25;;;;;;;;;;5446948;26;20021;-58
2024/04/17 13:58:32;;;;;;;14.10;10.20;;;;;;;;;;5447384;26;20015;-58
2024/04/17 14:00:58;;;;;;;14.32;10.93;;;;;;;;;;5447030;26;20413;-58
2024/04/17 14:03:25;;;;;;;14.27;10.73;;;;;;;;;;5446215;26;20666;-57
2024/04/17 14:05:51;;;;;;;14.13;10.45;;;;;;;;;;5446617;26;19994;-59
2024/04/17 14:08:17;;;;;;;14.40;11.00;;;;;;;;;;5446886;26;20098;-59
2024/04/17 14:10:43;;;;;;;14.40;10.98;;;;;;;;;;5446195;26;20040;-60
2024/04/17 14:13:09;;;;;;;14.60;11.68;;;;;;;;;;5446647;26;20392;-60
2024/04/17 14:15:39;;;;;;;14.60;11.60;;;;;;;;;;5445405;26;19995;-59
2024/04/17 14:18:05;;;;;;;14.52;11.35;;;;;;;;;;5448116;26;20079;-57
2024/04/17 14:20:37;;;;;;;14.55;11.48;;;;;;;;;;5446542;26;20006;-55
2024/04/17 14:23:04;;;;;;;14.60;11.50;;;;;;;;;;5446620;26;19998;-55
2024/04/17 14:25:30;;;;;;;14.50;11.25;;;;;;;;;;5447018;26;20043;-55
2024/04/17 14:27:56;;;;;;;14.60;11.40;;;;;;;;;;5446505;26;20064;-51